EHDV

D15-fa-1 Sea

D15-fa-1 Sea, The Netherlands
METAR EHDV 092155Z AUTO 31035KT 9999 FEW025/// SCT036/// 07/02 Q1013 W///H///
Observed Flight Rules
Dec-9 @ 21:55 UTC (30 minutes ago) Visual Flight Rules
Wind Visibility Clouds
310° at 35 knots 10,000+ meters
  • Few at 2,500' AGL
  • Scattered at 3,600' AGL
Temperatures Readings
Current 7°C / 45°F
Dewpoint 2°C / 36°F
Humidity 71%
Altimeter 29.91" Hg
Pressure 1013 hPa
Elevation 50
METAR EHDV 092155Z AUTO 31035KT 9999 FEW025/// SCT036/// 07/02 Q1013 W///H///
Observed Flight Rules
Dec-9 @ 21:55 UTC
(30 minutes ago)
VFR
Wind Visibility
310° at 35 knots 10,000+ meters
Clouds
  • Few at 2,500' AGL
  • Scattered at 3,600' AGL
Temperature Dewpoint
7°C / 45°F 2°C / 36°F
Humidity Altimeter Pressure
71% 29.91" Hg 1013 hPa